WetterOnline ( https://www.wetteronline.de )

Wetter aktuell Vallauris

Aktuelles Wetter: Nizza (27m)

6-stündlich | Neueste Meldungen
Ortszeit Temperatur Wetter
Mi, 26.02. 19:00 10.3° C fast wolkenlos
Mi, 26.02. 13:00 15.0° C fast wolkenlos
Mi, 26.02. 7:00 11.8° C leicht bewölkt
Mi, 26.02. 1:00 13.6° C wolkenlos
Di, 25.02. 19:00 13.2° C leicht bewölkt
Di, 25.02. 13:00 13.4° C leicht bewölkt
Di, 25.02. 7:00 10.6° C wolkig
Di, 25.02. 1:00 12.5° C bewölkt
Ortszeit Temperatur Wetter
Mi, 26.02. 20:30 10° C -
Mi, 26.02. 20:00 9.9° C fast wolkenlos
Mi, 26.02. 19:30 10° C leicht bewölkt
Mi, 26.02. 19:00 10.3° C fast wolkenlos
Mi, 26.02. 18:30 11° C leicht bewölkt
Mi, 26.02. 18:00 10.8° C fast wolkenlos
Mi, 26.02. 17:30 11° C leicht bewölkt
Mi, 26.02. 17:00 10.8° C fast wolkenlos
Ortszeit Relative Feuchte Sichtweite
Mi, 26.02. 19:00 36% 40 km
Mi, 26.02. 13:00 22% 40 km
Mi, 26.02. 7:00 52% 40 km
Mi, 26.02. 1:00 61% 35 km
Di, 25.02. 19:00 82% 35 km
Di, 25.02. 13:00 74% 30 km
Di, 25.02. 7:00 81% 20 km
Di, 25.02. 1:00 87% 15 km
Ortszeit Relative Feuchte Sichtweite
Mi, 26.02. 20:30 32% >10 km
Mi, 26.02. 20:00 33% 40 km
Mi, 26.02. 19:30 34% >10 km
Mi, 26.02. 19:00 36% 40 km
Mi, 26.02. 18:30 32% >10 km
Mi, 26.02. 18:00 34% 40 km
Mi, 26.02. 17:30 32% >10 km
Mi, 26.02. 17:00 41% 40 km
Ortszeit Niederschlagsmenge Niederschlagsart
Mi, 26.02. 19:00 0.0 l/m2 in 12 Std. -
Mi, 26.02. 13:00 0.0 l/m2 in 6 Std. -
Mi, 26.02. 7:00 0.0 l/m2 in 12 Std. -
Mi, 26.02. 1:00 0.0 l/m2 in 6 Std. -
Di, 25.02. 19:00 0.0 l/m2 in 12 Std. -
Di, 25.02. 13:00 0.0 l/m2 in 6 Std. -
Di, 25.02. 7:00 0.0 l/m2 in 12 Std. -
Di, 25.02. 1:00 0.0 l/m2 in 6 Std. -
Ortszeit Niederschlagsmenge Niederschlagsart
Mi, 26.02. 20:30 keine Meldung -
Mi, 26.02. 20:00 0.0 l/m2 in 1 Std. -
Mi, 26.02. 19:30 keine Meldung -
Mi, 26.02. 19:00 keine Meldung -
Mi, 26.02. 18:30 keine Meldung -
Mi, 26.02. 18:00 0.0 l/m2 in 1 Std. -
Mi, 26.02. 17:30 keine Meldung -
Mi, 26.02. 17:00 0.0 l/m2 in 1 Std. -
Ortszeit Stärke Spitze Richtung
km/h Bft. km/h Grad Sektor
Mi, 26.02. 19:00 28 4 56 280° W
Mi, 26.02. 13:00 44 6 78 290° W
Mi, 26.02. 7:00 28 4 44 240° SW
Mi, 26.02. 1:00 17 3 43 280° W
Di, 25.02. 19:00 15 3 19 70° O
Di, 25.02. 13:00 15 3 22 190° S
Di, 25.02. 7:00 13 3 17 330° NW
Di, 25.02. 1:00 4 1 6 250° W
Ortszeit Stärke Spitze Richtung
km/h Bft. km/h Grad Sektor
Mi, 26.02. 20:30 24 4 - 280° W
Mi, 26.02. 20:00 24 4 44 270° W
Mi, 26.02. 19:30 30 5 - 280° W
Mi, 26.02. 19:00 28 4 56 280° W
Mi, 26.02. 18:30 33 5 - 280° W
Mi, 26.02. 18:00 41 6 67 290° W
Mi, 26.02. 17:30 39 6 - 280° W
Mi, 26.02. 17:00 48 6 70 280° W
Ortszeit Untergrenze Bedeckung Gattung
total tief tief mittel hoch
Mi, 26.02. 19:00 690 m 1/8 1/8 Cu - -
Mi, 26.02. 13:00 690 m 1/8 1/8 Cu - -
Mi, 26.02. 7:00 7800 m 2/8 0/8 - - Ci
Mi, 26.02. 1:00 - 0/8 0/8 - - -
Di, 25.02. 19:00 7200 m 6/8 0/8 - - Ci
Di, 25.02. 13:00 750 m 5/8 1/8 Cu - Ci
Di, 25.02. 7:00 720 m 6/8 6/8 Sc - -
Di, 25.02. 1:00 540 m 7/8 7/8 Sc - -
Ortszeit Bedeckungsgrad in Achtel und Wolkenuntergrenze
Mi, 26.02. 20:30 keine Wolken(unter 1500 m)
Mi, 26.02. 20:00 1(900m)
Mi, 26.02. 19:30 1-2(690m)
Mi, 26.02. 19:00 1(690m)
Mi, 26.02. 18:30 1-2(690m)
Mi, 26.02. 18:00 1(690m)
Mi, 26.02. 17:30 1-2(690m)
Mi, 26.02. 17:00 1(690m)
Ortszeit Luftdruck NN (hPa) Tendenz (hPa in 3 Std.)
Mi, 26.02. 19:00 1009 + 4,3
Mi, 26.02. 13:00 1004 - 0,5
Mi, 26.02. 7:00 1003 + 0,5
Mi, 26.02. 1:00 1004 - 1,5
Di, 25.02. 19:00 1006 - 1,5
Di, 25.02. 13:00 1010 - 2,2
Di, 25.02. 7:00 1013 - 1,4
Di, 25.02. 1:00 1017 - 1,5
Ortszeit Luftdruck NN (hPa) Tendenz (hPa in 3 Std.)
Mi, 26.02. 20:30 1010 keine Meldung
Mi, 26.02. 20:00 1011 + 4,3
Mi, 26.02. 19:30 1009 keine Meldung
Mi, 26.02. 19:00 1009 + 4,3
Mi, 26.02. 18:30 1008 keine Meldung
Mi, 26.02. 18:00 1008 + 3,0
Mi, 26.02. 17:30 1006 keine Meldung
Mi, 26.02. 17:00 1006 + 2,4
Ortszeit Schneehöhe (cm)
Mi, 26.02. 19:00 -
Mi, 26.02. 13:00 -
Mi, 26.02. 7:00 -
Mi, 26.02. 1:00 -
Di, 25.02. 19:00 -
Di, 25.02. 13:00 -
Di, 25.02. 7:00 -
Di, 25.02. 1:00 -
Ortszeit Schneehöhe (cm)
Mi, 26.02. 20:30 -
Mi, 26.02. 20:00 -
Mi, 26.02. 19:30 -
Mi, 26.02. 19:00 -
Mi, 26.02. 18:30 -
Mi, 26.02. 18:00 -
Mi, 26.02. 17:30 -
Mi, 26.02. 17:00 -
Link zu dieser Seite / Seite empfehlen

Das Wetter in ...